Portada
METAR-TAF:

METAR-TAF

Aeroports :

Alofi, Niue

latitud: 19-04S, longitud: 169-55W, altitud: 20 m

Observació

L'informe es va fer fa 44 minuts, a les 04:00 UTC
Temperatura 24°C
Humitat 74%
Pressió 1015 hPa

METAR: NIUE 010400Z AUTO /////KT 24/19 Q1015

Hora: 17:44 (04:44 UTC)

Pronòstic

L'informe es va fer fa 11 hores i 40 minuts, a les 17:04 UTC
Pronòstic vàlid del 30 a les 18 UTC al 01 a les 18 UTC
Vent 8 kt del Sud-Est
Visibilitat 10 km o més
Núvols disperses a una alçada de 1800 ft

TAF: NIUE 301704Z 3018/0118 13008KT 9999 SCT018

Observacions i pronòstics meteorològics de més de 4000 aeroports (METAR i TAF).

Les estacions disponibles són els punts grocs i vermells al mapa.

Posi el ratolí al punt desitjat per veure el nom de l'estació.

Feu clic per veure les observacions i els pronòstics meteorològics.

Per canviar el mapa: feu clic els botons verds amb una creu de color negre per apropar; al botó verd amb un guió per allunyar la imatge; o en les fletxes verdes per a mapes adjacents.


METAR-TAF: